Time;durP1;ratioP1;P1;durP2;ratioP2;P2;SDS_P1;SDS_P2;PMS_P1;PMS_P2;Temp;Humidity;BMP_temperature;BMP_pressure;BME280_temperature;BME280_humidity;BME280_pressure;Samples;Min_cycle;Max_cycle;Signal;HPM_P1;HPM_P2
2022/12/17 13:06:40;;;;;;;;;;;;;;;14.93;50.56;102597.50;2089400;28;19929;-69
2022/12/17 13:07:43;;;;;;;;;;;;;;;14.92;50.47;102602.13;2090863;28;19935;-69
2022/12/17 13:08:44;;;;;;;;;;;;;;;14.92;50.83;102595.91;2096971;28;19935;-68
2022/12/17 13:09:49;;;;;;;;;;;;;;;14.93;50.43;102597.50;2090453;28;19935;-68
2022/12/17 13:10:51;;;;;;;;;;;;;;;14.93;50.66;102602.94;2092371;28;19925;-69
2022/12/17 13:12:08;;;;;;;;;;;;;;;14.92;50.75;102591.25;2102999;28;21292;-66
2022/12/17 13:13:12;;;;;;;;;;;;;;;14.94;50.85;102593.66;2102925;28;19924;-68
2022/12/17 13:14:16;;;;;;;;;;;;;;;14.93;50.75;102586.63;2102286;28;19928;-69
2022/12/17 13:15:21;;;;;;;;;;;;;;;14.94;50.73;102596.38;2100948;28;19940;-67
2022/12/17 13:16:30;;;;;;;;;;;;;;;14.94;50.83;102591.75;2096904;28;20006;-67
2022/12/17 13:17:35;;;;;;;;;;;;;;;14.94;50.86;102582.78;2101253;28;19928;-67
2022/12/17 13:18:39;;;;;;;;;;;;;;;14.95;50.82;102590.59;2100284;28;19982;-68
2022/12/17 13:19:42;;;;;;;;;;;;;;;14.95;50.94;102581.66;2096325;28;19928;-68
2022/12/17 13:20:55;;;;;;;;;;;;;;;14.96;50.94;102591.41;2096972;28;19978;-69
2022/12/17 13:22:08;;;;;;;;;;;;;;;14.96;50.79;102588.69;2098550;28;19932;-70
2022/12/17 13:23:16;;;;;;;;;;;;;;;14.96;50.82;102596.84;2096122;28;19928;-68
2022/12/17 13:24:25;;;;;;;;;;;;;;;14.96;50.79;102603.09;2101575;28;19947;-68
2022/12/17 13:25:27;;;;;;;;;;;;;;;14.96;50.80;102608.53;2098650;28;19935;-66
2022/12/17 13:26:41;;;;;;;;;;;;;;;14.96;50.76;102607.72;2102503;28;19943;-69
2022/12/17 13:27:44;;;;;;;;;;;;;;;14.96;50.56;102602.28;2102877;28;19967;-68
2022/12/17 13:28:58;;;;;;;;;;;;;;;14.97;50.75;102606.59;2093029;28;19924;-68
2022/12/17 13:30:19;;;;;;;;;;;;;;;14.97;50.88;102603.88;2092393;28;19939;-68
2022/12/17 13:31:24;;;;;;;;;;;;;;;14.97;50.80;102598.44;2100548;28;19931;-69
2022/12/17 13:32:29;;;;;;;;;;;;;;;14.97;50.65;102606.59;2100722;28;20388;-68
2022/12/17 13:33:39;;;;;;;;;;;;;;;14.97;50.69;102612.03;2096992;28;19928;-69
2022/12/17 13:34:52;;;;;;;;;;;;;;;14.97;50.71;102601.97;2098224;28;19940;-65
2022/12/17 13:36:00;;;;;;;;;;;;;;;14.97;50.85;102599.25;2095845;28;19929;-68
2022/12/17 13:37:05;;;;;;;;;;;;;;;14.97;50.82;102606.59;2097927;28;19928;-68
2022/12/17 13:38:14;;;;;;;;;;;;;;;14.98;50.88;102602.75;2091168;28;19933;-68
2022/12/17 13:39:25;;;;;;;;;;;;;;;14.98;50.79;102605.50;2082898;28;20026;-68
2022/12/17 13:40:34;;;;;;;;;;;;;;;14.96;50.68;102613.97;2088892;28;19940;-69
2022/12/17 13:41:37;;;;;;;;;;;;;;;14.96;50.82;102608.53;2088531;28;19932;-69
2022/12/17 13:42:40;;;;;;;;;;;;;;;14.98;50.92;102602.75;2089069;28;19936;-68
2022/12/17 13:43:43;;;;;;;;;;;;;;;14.97;50.72;102603.88;2101926;28;19928;-67
2022/12/17 13:44:46;;;;;;;;;;;;;;;14.97;51.01;102606.59;2101700;28;19928;-67
2022/12/17 13:45:49;;;;;;;;;;;;;;;14.97;51.02;102606.59;2100078;28;20479;-67
2022/12/17 13:46:53;;;;;;;;;;;;;;;14.96;50.81;102603.09;2098590;28;20008;-68
2022/12/17 13:47:55;;;;;;;;;;;;;;;14.96;50.96;102602.28;2089912;28;19928;-66
2022/12/17 13:49:00;;;;;;;;;;;;;;;14.96;51.13;102597.66;2088281;28;19972;-67
2022/12/17 13:50:17;;;;;;;;;;;;;;;14.95;51.03;102596.03;2099475;28;19950;-66
2022/12/17 13:51:35;;;;;;;;;;;;;;;14.95;51.05;102592.53;2100645;28;20093;-68
2022/12/17 13:52:40;;;;;;;;;;;;;;;14.95;51.07;102598.75;2100474;28;19935;-67
2022/12/17 13:53:50;;;;;;;;;;;;;;;14.96;51.26;102599.56;2099451;28;20681;-67
2022/12/17 13:54:53;;;;;;;;;;;;;;;14.95;51.17;102595.25;2098143;28;19932;-67
2022/12/17 13:55:56;;;;;;;;;;;;;;;14.95;50.63;102595.25;2096279;28;19929;-68
2022/12/17 13:57:06;;;;;;;;;;;;;;;14.95;51.19;102589.81;2104289;28;19928;-68
2022/12/17 13:58:19;;;;;;;;;;;;;;;14.95;51.10;102596.03;2094654;28;19933;-68
2022/12/17 13:59:24;;;;;;;;;;;;;;;14.94;51.09;102594.47;2093402;28;19928;-67
2022/12/17 14:00:27;;;;;;;;;;;;;;;14.94;50.94;102602.63;2099902;28;19928;-67
2022/12/17 14:01:29;;;;;;;;;;;;;;;14.93;51.34;102602.94;2098827;28;19939;-68
2022/12/17 14:02:32;;;;;;;;;;;;;;;14.93;50.83;102603.75;2097593;28;19935;-66
2022/12/17 14:03:35;;;;;;;;;;;;;;;14.94;50.98;102607.25;2100604;28;20409;-69
2022/12/17 14:05:00;;;;;;;;;;;;;;;14.93;50.98;102602.94;2103042;28;19931;-68
2022/12/17 14:06:09;;;;;;;;;;;;;;;14.93;51.05;102609.19;2100369;28;19928;-69
2022/12/17 14:07:11;;;;;;;;;;;;;;;14.93;51.26;102602.94;2098411;28;19925;-68
2022/12/17 14:08:16;;;;;;;;;;;;;;;14.92;51.11;102604.09;2101146;28;19972;-69
2022/12/17 14:09:19;;;;;;;;;;;;;;;14.92;51.07;102606.81;2103406;28;19928;-66
2022/12/17 14:10:21;;;;;;;;;;;;;;;14.92;51.04;102606.81;2102689;28;19923;-68
2022/12/17 14:12:44;;;;;;;;;;;;;;;14.90;51.33;102612.53;2090341;28;19928;-67
2022/12/17 14:13:48;;;;;;;;;;;;;;;14.91;50.88;102607.91;2082215;28;19929;-67
2022/12/17 14:14:53;;;;;;;;;;;;;;;14.90;51.12;102626.13;2089624;28;19929;-68
2022/12/17 14:15:56;;;;;;;;;;;;;;;14.90;51.19;102619.91;2099090;28;19944;-67
2022/12/17 14:16:59;;;;;;;;;;;;;;;14.89;51.30;102626.47;2098770;28;20394;-66
2022/12/17 14:18:01;;;;;;;;;;;;;;;14.89;51.29;102621.03;2091208;28;19988;-67
2022/12/17 14:19:04;;;;;;;;;;;;;;;14.89;51.15;102623.75;2091209;28;19929;-67
2022/12/17 14:20:10;;;;;;;;;;;;;;;14.88;51.30;102616.72;2097861;28;19935;-67
2022/12/17 14:21:13;;;;;;;;;;;;;;;14.88;51.11;102616.72;2100079;28;19935;-68
2022/12/17 14:22:19;;;;;;;;;;;;;;;14.88;51.12;102622.97;2092514;28;19974;-68
2022/12/17 14:23:24;;;;;;;;;;;;;;;14.87;51.24;102626.78;2090604;28;19929;-68
2022/12/17 14:24:28;;;;;;;;;;;;;;;14.87;51.27;102636.88;2098675;28;20292;-67
2022/12/17 14:25:34;;;;;;;;;;;;;;;14.86;51.24;102624.41;2098054;28;19928;-68
2022/12/17 14:26:45;;;;;;;;;;;;;;;14.86;51.05;102630.66;2101670;28;19932;-68
2022/12/17 14:27:51;;;;;;;;;;;;;;;14.86;51.15;102627.13;2097650;28;20490;-68
2022/12/17 14:28:54;;;;;;;;;;;;;;;14.84;51.34;102627.44;2102345;28;19928;-67
2022/12/17 14:29:56;;;;;;;;;;;;;;;14.85;51.28;102628.25;2099497;28;19929;-67
2022/12/17 14:31:04;;;;;;;;;;;;;;;14.85;51.15;102634.50;2103820;28;19929;-66
2022/12/17 14:32:32;;;;;;;;;;;;;;;14.84;51.37;102626.66;2098537;28;20011;-67
2022/12/17 14:33:34;;;;;;;;;;;;;;;14.84;51.36;102637.53;2101708;28;19928;-67
2022/12/17 14:34:40;;;;;;;;;;;;;;;14.83;51.43;102630.50;2102886;28;19924;-67
2022/12/17 14:35:51;;;;;;;;;;;;;;;14.82;51.37;102637.88;2102798;28;19928;-66
2022/12/17 14:36:55;;;;;;;;;;;;;;;14.82;51.47;102634.34;2091605;28;19929;-67
2022/12/17 14:37:56;;;;;;;;;;;;;;;14.82;51.18;102639.78;2095086;28;19935;-68
2022/12/17 14:39:00;;;;;;;;;;;;;;;14.82;51.38;102639.78;2097921;28;20159;-68
2022/12/17 14:40:05;;;;;;;;;;;;;;;14.81;51.25;102643.59;2100256;28;19935;-67
2022/12/17 14:42:28;;;;;;;;;;;;;;;14.81;51.30;102643.59;2096869;28;19935;-68
2022/12/17 14:43:30;;;;;;;;;;;;;;;14.80;51.45;102650.19;2099690;28;19928;-68
2022/12/17 14:44:32;;;;;;;;;;;;;;;14.78;51.25;102646.97;2098678;28;19928;-68
2022/12/17 14:46:19;;;;;;;;;;;;;;;14.80;51.45;102650.19;2088505;28;19933;-68
2022/12/17 14:47:06;;;;;;;;;;;;;;;14.79;51.36;102640.44;2091849;28;19927;-67
2022/12/17 14:48:14;;;;;;;;;;;;;;;14.79;51.25;102645.88;2089834;28;19929;-68
2022/12/17 14:49:17;;;;;;;;;;;;;;;14.78;51.47;102642.34;2093399;28;19928;-68
2022/12/17 14:50:31;;;;;;;;;;;;;;;14.78;51.34;102644.25;2101167;28;19939;-68
2022/12/17 14:51:35;;;;;;;;;;;;;;;14.77;51.32;102639.94;2102495;28;19935;-68
2022/12/17 14:52:39;;;;;;;;;;;;;;;14.77;51.46;102648.91;2099554;28;19927;-66
2022/12/17 14:53:41;;;;;;;;;;;;;;;14.76;51.65;102644.59;2098204;28;20653;-68
2022/12/17 14:54:45;;;;;;;;;;;;;;;14.76;51.40;102643.81;2098803;28;20001;-67
2022/12/17 14:55:52;;;;;;;;;;;;;;;14.76;51.28;102641.09;2099279;28;19957;-67
2022/12/17 14:56:57;;;;;;;;;;;;;;;14.74;51.28;102643.31;2097920;28;19928;-67
2022/12/17 14:58:17;;;;;;;;;;;;;;;14.74;51.37;102643.31;2101569;28;19932;-65
2022/12/17 14:59:24;;;;;;;;;;;;;;;14.74;51.60;102640.59;2099927;28;19925;-68
2022/12/17 15:00:27;;;;;;;;;;;;;;;14.73;51.81;102642.50;2098354;28;19965;-68
2022/12/17 15:01:30;;;;;;;;;;;;;;;14.74;51.28;102651.47;2100081;28;19997;-68
2022/12/17 15:02:36;;;;;;;;;;;;;;;14.73;51.31;102647.94;2092517;28;19936;-68
2022/12/17 15:03:40;;;;;;;;;;;;;;;14.72;51.73;102638.22;2094261;28;19933;-68
2022/12/17 15:04:46;;;;;;;;;;;;;;;14.72;51.68;102649.09;2098075;28;19951;-67
2022/12/17 15:05:54;;;;;;;;;;;;;;;14.71;51.68;102647.47;2091626;28;20476;-68
2022/12/17 15:06:57;;;;;;;;;;;;;;;14.72;51.67;102651.00;2089693;28;20384;-68
2022/12/17 15:08:00;;;;;;;;;;;;;;;14.71;51.72;102649.41;2098146;28;19932;-68
2022/12/17 15:09:04;;;;;;;;;;;;;;;14.71;51.76;102654.84;2087844;28;19928;-68
2022/12/17 15:10:11;;;;;;;;;;;;;;;14.70;51.43;102653.22;2091641;28;20311;-68
2022/12/17 15:11:16;;;;;;;;;;;;;;;14.69;51.50;102647.03;2103340;28;20386;-68
2022/12/17 15:12:20;;;;;;;;;;;;;;;14.70;51.54;102645.88;2099659;28;19975;-68
2022/12/17 15:13:25;;;;;;;;;;;;;;;14.69;51.63;102651.66;2098416;28;19935;-68
2022/12/17 15:14:30;;;;;;;;;;;;;;;14.68;51.56;102659.00;2098830;28;19933;-68
2022/12/17 15:15:32;;;;;;;;;;;;;;;14.69;51.53;102657.09;2101868;28;19935;-68
2022/12/17 15:16:35;;;;;;;;;;;;;;;14.68;51.52;102659.00;2087860;28;19943;-69
2022/12/17 15:17:39;;;;;;;;;;;;;;;14.68;51.62;102655.50;2092227;28;19932;-68
2022/12/17 15:18:45;;;;;;;;;;;;;;;14.67;51.54;102662.03;2089995;28;20019;-68
2022/12/17 15:19:47;;;;;;;;;;;;;;;14.68;51.63;102663.66;2075079;28;19929;-67
2022/12/17 15:20:57;;;;;;;;;;;;;;;14.66;51.57;102660.44;2079336;28;19925;-69
2022/12/17 15:22:06;;;;;;;;;;;;;;;14.67;51.71;102659.31;2090168;28;20431;-69
2022/12/17 15:23:13;;;;;;;;;;;;;;;14.67;51.39;102670.19;2105005;28;20339;-68
2022/12/17 15:24:20;;;;;;;;;;;;;;;14.66;51.36;102663.19;2097706;28;19932;-67
2022/12/17 15:25:21;;;;;;;;;;;;;;;14.65;51.51;102669.75;2101451;28;20461;-67
2022/12/17 15:26:24;;;;;;;;;;;;;;;14.64;51.67;102663.50;2104376;28;19928;-65
2022/12/17 15:27:26;;;;;;;;;;;;;;;14.65;51.56;102672.47;2099248;28;19924;-68
2022/12/17 15:28:28;;;;;;;;;;;;;;;14.65;51.44;102667.81;2098460;28;19932;-68
2022/12/17 15:29:34;;;;;;;;;;;;;;;14.65;51.82;102672.47;2098162;28;19928;-70
2022/12/17 15:30:40;;;;;;;;;;;;;;;14.63;51.42;102661.91;2103019;28;20006;-68
2022/12/17 15:31:46;;;;;;;;;;;;;;;14.62;51.75;102665.72;2102502;28;20375;-68
2022/12/17 15:32:47;;;;;;;;;;;;;;;14.62;51.83;102667.66;2097602;28;19932;-68
2022/12/17 15:34:47;;;;;;;;;;;;;;;14.62;51.80;102670.38;2078051;28;19934;-71
2022/12/17 15:36:03;;;;;;;;;;;;;;;14.61;51.54;102669.59;2096402;28;19928;-60
2022/12/17 15:37:07;;;;;;;;;;;;;;;14.61;51.50;102661.44;2091763;28;19936;-62
2022/12/17 15:38:11;;;;;;;;;;;;;;;14.61;51.77;102666.06;2097584;28;19932;-62
2022/12/17 15:39:14;;;;;;;;;;;;;;;14.61;51.79;102669.59;2101674;28;19924;-62
2022/12/17 15:40:18;;;;;;;;;;;;;;;14.60;51.67;102672.63;2096939;28;20015;-63
2022/12/17 15:44:07;;;;;;;;;;;;;;;14.59;51.75;102690.84;2091692;28;19925;-62
2022/12/17 15:45:09;;;;;;;;;;;;;;;14.59;51.50;102690.03;2101265;28;19972;-61
2022/12/17 15:46:12;;;;;;;;;;;;;;;14.59;51.71;102690.03;2091585;28;19925;-61
2022/12/17 15:47:14;;;;;;;;;;;;;;;14.58;51.81;102691.16;2094728;28;19978;-61
2022/12/17 15:48:18;;;;;;;;;;;;;;;14.57;51.87;102698.53;2100763;28;19928;-60
2022/12/17 15:49:20;;;;;;;;;;;;;;;14.57;51.56;102698.53;2098004;28;19939;-61
2022/12/17 15:50:23;;;;;;;;;;;;;;;14.58;51.91;102702.03;2102657;28;20328;-61
2022/12/17 15:51:25;;;;;;;;;;;;;;;14.58;52.05;102704.75;2098419;28;19971;-61
2022/12/17 15:52:29;;;;;;;;;;;;;;;14.56;52.02;102702.38;2096129;28;19982;-62
2022/12/17 15:53:31;;;;;;;;;;;;;;;14.57;51.77;102703.19;2087390;28;19933;-61
2022/12/17 15:54:34;;;;;;;;;;;;;;;14.55;51.77;102708.94;2094458;28;20421;-62
2022/12/17 15:55:37;;;;;;;;;;;;;;;14.56;51.81;102707.00;2100524;28;19953;-61
2022/12/17 15:56:39;;;;;;;;;;;;;;;14.54;51.82;102699.16;2087873;28;19928;-61
2022/12/17 15:57:42;;;;;;;;;;;;;;;14.55;51.77;102708.13;2090834;28;19929;-62
2022/12/17 15:58:45;;;;;;;;;;;;;;;14.55;51.73;102700.78;2097769;28;20592;-61
2022/12/17 15:59:47;;;;;;;;;;;;;;;14.54;51.59;102695.66;2097799;28;19935;-60
2022/12/17 16:00:50;;;;;;;;;;;;;;;14.54;51.99;102696.44;2098342;28;19929;-61
2022/12/17 16:01:51;;;;;;;;;;;;;;;14.53;51.99;102694.06;2100211;28;20295;-62
2022/12/17 16:02:56;;;;;;;;;;;;;;;14.54;52.02;102698.38;2091144;28;20016;-61
2022/12/17 16:03:59;;;;;;;;;;;;;;;14.52;51.75;102695.19;2088825;28;19975;-62
2022/12/17 16:05:00;;;;;;;;;;;;;;;14.53;51.71;102691.34;2096915;28;19939;-62
2022/12/17 16:06:03;;;;;;;;;;;;;;;14.53;51.80;102704.94;2099976;28;20294;-62
2022/12/17 16:07:06;;;;;;;;;;;;;;;14.52;51.72;102706.06;2101026;28;19928;-62
2022/12/17 16:08:09;;;;;;;;;;;;;;;14.51;51.75;102701.72;2098757;28;19928;-63
2022/12/17 16:09:12;;;;;;;;;;;;;;;14.52;51.83;102703.34;2102857;28;20383;-62
2022/12/17 16:10:14;;;;;;;;;;;;;;;14.50;51.98;102690.06;2101767;28;20311;-62
2022/12/17 16:11:16;;;;;;;;;;;;;;;14.49;52.08;102702.03;2099083;28;19936;-62
2022/12/17 16:12:19;;;;;;;;;;;;;;;14.50;51.51;102695.50;2098851;28;19932;-61
2022/12/17 16:13:20;;;;;;;;;;;;;;;14.50;51.76;102689.25;2097965;28;20539;-62
2022/12/17 16:14:23;;;;;;;;;;;;;;;14.49;51.83;102690.38;2102018;28;20306;-61
2022/12/17 16:15:25;;;;;;;;;;;;;;;14.48;51.99;102699.66;2099116;28;19939;-60
2022/12/17 16:16:29;;;;;;;;;;;;;;;14.49;51.84;102698.53;2099192;28;19974;-61
2022/12/17 16:17:32;;;;;;;;;;;;;;;14.48;51.79;102696.94;2100452;28;19990;-61
2022/12/17 16:18:37;;;;;;;;;;;;;;;14.47;51.83;102700.78;2099606;28;19985;-61
2022/12/17 16:19:42;;;;;;;;;;;;;;;14.47;51.85;102698.06;2097129;28;19928;-61
2022/12/17 16:20:44;;;;;;;;;;;;;;;14.47;51.76;102700.78;2101175;28;20489;-61
2022/12/17 16:21:46;;;;;;;;;;;;;;;14.46;51.89;102696.47;2098351;28;20016;-61
2022/12/17 16:22:48;;;;;;;;;;;;;;;14.46;51.89;102701.91;2100420;28;20625;-61
2022/12/17 16:23:51;;;;;;;;;;;;;;;14.46;51.73;102699.97;2099150;28;19928;-62
2022/12/17 16:24:54;;;;;;;;;;;;;;;14.45;52.08;102692.94;2097998;28;19928;-61
2022/12/17 16:25:58;;;;;;;;;;;;;;;14.46;52.02;102707.34;2096274;28;19928;-62
2022/12/17 16:27:02;;;;;;;;;;;;;;;14.45;51.84;102708.44;2100151;28;20463;-62
2022/12/17 16:28:06;;;;;;;;;;;;;;;14.45;51.90;102701.09;2098571;28;19975;-62
2022/12/17 16:29:08;;;;;;;;;;;;;;;14.45;51.77;102711.16;2097716;28;19928;-62
2022/12/17 16:30:13;;;;;;;;;;;;;;;14.44;51.93;102704.16;2098234;28;19931;-60
2022/12/17 16:31:19;;;;;;;;;;;;;;;14.44;51.90;102707.66;2098385;28;19929;-63
2022/12/17 16:32:22;;;;;;;;;;;;;;;14.43;51.74;102703.34;2095889;28;20001;-62
2022/12/17 16:33:30;;;;;;;;;;;;;;;14.43;51.67;102708.00;2096663;28;19974;-61
2022/12/17 16:34:39;;;;;;;;;;;;;;;14.43;51.97;102700.63;2106775;28;19955;-60
2022/12/17 16:35:49;;;;;;;;;;;;;;;14.43;52.13;102699.84;2097309;28;20074;-62
2022/12/17 16:36:55;;;;;;;;;;;;;;;14.42;51.71;102701.75;2098705;28;20011;-62
2022/12/17 16:38:02;;;;;;;;;;;;;;;14.42;51.86;102701.75;2096972;28;19932;-62
2022/12/17 16:39:06;;;;;;;;;;;;;;;14.42;51.68;102706.38;2096971;28;19928;-62
2022/12/17 16:40:11;;;;;;;;;;;;;;;14.42;51.72;102700.94;2097931;28;19928;-63
2022/12/17 16:41:15;;;;;;;;;;;;;;;14.41;51.82;102705.56;2102580;28;20011;-62
2022/12/17 16:42:18;;;;;;;;;;;;;;;14.41;51.75;102705.56;2096743;28;19935;-61
2022/12/17 16:43:20;;;;;;;;;;;;;;;14.41;51.81;102704.78;2101024;28;19928;-62
2022/12/17 16:44:23;;;;;;;;;;;;;;;14.41;51.67;102710.22;2096342;28;20387;-60
2022/12/17 16:45:25;;;;;;;;;;;;;;;14.40;52.08;102705.88;2087605;28;19929;-62
2022/12/17 16:46:28;;;;;;;;;;;;;;;14.40;51.65;102705.88;2089280;28;19935;-62
2022/12/17 16:47:31;;;;;;;;;;;;;;;14.40;51.77;102703.16;2098257;28;20303;-63
2022/12/17 16:48:35;;;;;;;;;;;;;;;14.39;51.62;102704.31;2098731;28;19951;-62
2022/12/17 16:49:38;;;;;;;;;;;;;;;14.39;51.76;102712.44;2097563;28;19928;-62
2022/12/17 16:50:43;;;;;;;;;;;;;;;14.38;51.70;102706.22;2096475;28;19971;-61
2022/12/17 16:51:45;;;;;;;;;;;;;;;14.38;52.13;102710.88;2097920;28;19928;-62
2022/12/17 16:52:48;;;;;;;;;;;;;;;14.38;52.12;102714.34;2097670;28;19924;-62
2022/12/17 16:53:50;;;;;;;;;;;;;;;14.38;51.71;102708.94;2095526;28;20342;-62
2022/12/17 16:54:54;;;;;;;;;;;;;;;14.38;51.72;102708.16;2095504;28;19960;-61
2022/12/17 16:55:55;;;;;;;;;;;;;;;14.38;52.13;102713.59;2095802;28;19944;-61
2022/12/17 16:57:00;;;;;;;;;;;;;;;14.37;51.80;102709.25;2095501;28;19924;-62
2022/12/17 16:58:02;;;;;;;;;;;;;;;14.37;51.47;102717.41;2095700;28;19933;-61
2022/12/17 16:59:06;;;;;;;;;;;;;;;14.36;51.67;102707.66;2096315;28;19960;-61
2022/12/17 17:00:11;;;;;;;;;;;;;;;14.37;51.47;102709.25;2081764;28;19964;-61
2022/12/17 17:01:16;;;;;;;;;;;;;;;14.36;51.78;102707.66;2081137;28;19925;-61
2022/12/17 17:02:19;;;;;;;;;;;;;;;14.35;51.98;102706.06;2097680;28;19972;-60
2022/12/17 17:03:21;;;;;;;;;;;;;;;14.36;52.11;102713.09;2095783;28;19971;-60
2022/12/17 17:04:24;;;;;;;;;;;;;;;14.35;51.69;102709.56;2096668;28;19928;-60
2022/12/17 17:05:26;;;;;;;;;;;;;;;14.35;51.75;102716.94;2099158;28;19928;-61
2022/12/17 17:06:28;;;;;;;;;;;;;;;14.35;52.01;102716.94;2100908;28;19924;-62
2022/12/17 17:08:00;;;;;;;;;;;;;;;14.35;52.05;102711.50;2099811;28;19932;-64
2022/12/17 17:09:03;;;;;;;;;;;;;;;14.35;51.66;102714.22;2095853;28;20425;-61
2022/12/17 17:10:08;;;;;;;;;;;;;;;14.34;51.94;102720.75;2098131;28;19936;-62
2022/12/17 17:11:10;;;;;;;;;;;;;;;14.33;51.92;102719.97;2096315;28;19929;-61
2022/12/17 17:12:13;;;;;;;;;;;;;;;14.34;51.86;102723.47;2099052;28;20183;-62
2022/12/17 17:13:15;;;;;;;;;;;;;;;14.33;51.93;102725.41;2096540;28;20036;-62
2022/12/17 17:14:18;;;;;;;;;;;;;;;14.33;51.80;102724.59;2089952;28;19928;-61
2022/12/17 17:15:21;;;;;;;;;;;;;;;14.33;51.60;102724.59;2090509;28;19929;-62
2022/12/17 17:16:30;;;;;;;;;;;;;;;14.32;51.96;102721.06;2096136;28;19925;-62
2022/12/17 17:17:32;;;;;;;;;;;;;;;14.33;51.87;102724.59;2096546;28;20379;-61
2022/12/17 17:18:59;;;;;;;;;;;;;;;14.32;52.10;102723.00;2098862;28;19990;-61
2022/12/17 17:20:00;;;;;;;;;;;;;;;14.32;51.86;102726.50;2096399;28;19929;-61
2022/12/17 17:21:13;;;;;;;;;;;;;;;14.32;51.67;102733.84;2096364;28;20201;-61
2022/12/17 17:22:16;;;;;;;;;;;;;;;14.32;51.55;102728.44;2099032;28;20379;-61
2022/12/17 17:23:20;;;;;;;;;;;;;;;14.31;51.77;102724.13;2104098;28;19928;-61
2022/12/17 17:24:24;;;;;;;;;;;;;;;14.31;51.99;102733.09;2097963;28;19928;-61
2022/12/17 17:25:29;;;;;;;;;;;;;;;14.32;51.95;102731.13;2096096;28;19946;-61
2022/12/17 17:26:52;;;;;;;;;;;;;;;14.30;51.88;102730.69;2093006;28;19931;-62
2022/12/17 17:27:55;;;;;;;;;;;;;;;14.30;51.66;102727.97;2089452;28;19932;-61
2022/12/17 17:28:57;;;;;;;;;;;;;;;14.30;51.76;102727.97;2097868;28;20294;-61
2022/12/17 17:30:00;;;;;;;;;;;;;;;14.30;51.64;102725.25;2097210;28;20376;-60
2022/12/17 17:31:05;;;;;;;;;;;;;;;14.29;52.18;102723.63;2096435;28;19931;-61
2022/12/17 17:32:07;;;;;;;;;;;;;;;14.29;51.82;102729.88;2097865;28;20268;-62
2022/12/17 17:33:11;;;;;;;;;;;;;;;14.29;51.95;102729.06;2099978;28;19959;-63
2022/12/17 17:34:14;;;;;;;;;;;;;;;14.28;51.96;102728.28;2098627;28;19932;-61
2022/12/17 17:35:17;;;;;;;;;;;;;;;14.29;51.96;102723.63;2095909;28;20023;-61
2022/12/17 17:36:20;;;;;;;;;;;;;;;14.28;51.89;102728.28;2096250;28;20589;-61
2022/12/17 17:37:23;;;;;;;;;;;;;;;14.27;51.65;102721.22;2097154;28;19978;-60
2022/12/17 17:38:24;;;;;;;;;;;;;;;14.28;51.65;102722.03;2096603;28;19928;-61
2022/12/17 17:39:36;;;;;;;;;;;;;;;14.28;51.78;102727.47;2090484;28;19936;-60
2022/12/17 17:40:39;;;;;;;;;;;;;;;14.27;51.86;102725.88;2094839;28;19951;-61
2022/12/17 17:41:42;;;;;;;;;;;;;;;14.26;51.67;102727.00;2099515;28;19924;-64
2022/12/17 17:42:43;;;;;;;;;;;;;;;14.26;51.93;102722.38;2095143;28;20298;-63
2022/12/17 17:43:53;;;;;;;;;;;;;;;14.27;51.76;102725.88;2087956;28;20012;-61
2022/12/17 17:44:54;;;;;;;;;;;;;;;14.26;51.99;102730.50;2089963;28;20023;-61
2022/12/17 17:46:03;;;;;;;;;;;;;;;14.26;51.90;102724.28;2098118;28;20011;-61
2022/12/17 17:47:06;;;;;;;;;;;;;;;14.27;51.83;102725.88;2101620;28;19932;-62
2022/12/17 17:48:08;;;;;;;;;;;;;;;14.26;51.96;102729.72;2098575;28;19971;-62
2022/12/17 17:49:11;;;;;;;;;;;;;;;14.26;51.98;102721.56;2099056;28;19932;-61
2022/12/17 17:50:14;;;;;;;;;;;;;;;14.25;51.58;102728.13;2100277;28;19939;-61
2022/12/17 17:51:17;;;;;;;;;;;;;;;14.25;52.16;102722.69;2102257;28;20421;-61
2022/12/17 17:52:19;;;;;;;;;;;;;;;14.25;51.94;102728.13;2105932;28;19928;-62
2022/12/17 17:53:21;;;;;;;;;;;;;;;14.25;51.85;102728.94;2102461;28;19928;-61
2022/12/17 17:54:23;;;;;;;;;;;;;;;14.24;51.92;102729.22;2101908;28;19998;-62
2022/12/17 17:55:26;;;;;;;;;;;;;;;14.24;51.97;102732.75;2099169;28;19955;-61
2022/12/17 17:56:31;;;;;;;;;;;;;;;14.24;51.67;102734.66;2100290;28;20720;-62
2022/12/17 17:57:33;;;;;;;;;;;;;;;14.24;52.02;102737.38;2097397;28;19947;-61
2022/12/17 17:58:35;;;;;;;;;;;;;;;14.24;51.80;102737.38;2099190;28;20272;-62
2022/12/17 17:59:39;;;;;;;;;;;;;;;14.23;51.78;102736.56;2100563;28;20349;-62
2022/12/17 18:00:40;;;;;;;;;;;;;;;14.23;52.13;102741.19;2098253;28;19928;-60
2022/12/17 18:01:44;;;;;;;;;;;;;;;14.23;51.92;102743.91;2091564;28;19931;-61
2022/12/17 18:02:46;;;;;;;;;;;;;;;14.22;51.95;102747.75;2091265;28;19933;-61
2022/12/17 18:03:48;;;;;;;;;;;;;;;14.22;51.77;102745.03;2090131;28;19928;-61
2022/12/17 18:04:51;;;;;;;;;;;;;;;14.22;51.76;102755.91;2090151;28;20397;-61
2022/12/17 18:05:59;;;;;;;;;;;;;;;14.22;51.44;102753.19;2102086;28;19935;-62
2022/12/17 18:07:02;;;;;;;;;;;;;;;14.21;51.86;102748.84;2089157;28;20403;-62
2022/12/17 18:08:40;;;;;;;;;;;;;;;14.22;52.03;102750.47;2094297;28;19928;-64
2022/12/17 18:09:43;;;;;;;;;;;;;;;14.22;51.64;102755.91;2101869;28;19932;-62
2022/12/17 18:11:12;;;;;;;;;;;;;;;14.21;51.71;102765.16;2100183;28;19928;-65
2022/12/17 18:15:02;;;;;;;;;;;;;;;14.20;51.64;102763.56;2100676;28;20386;-62
2022/12/17 18:16:47;;;;;;;;;;;;;;;14.19;52.08;102768.19;2098647;28;20394;-61
2022/12/17 18:18:15;;;;;;;;;;;;;;;14.20;51.74;102769.00;2104051;28;19995;-74
2022/12/17 18:19:31;;;;;;;;;;;;;;;14.19;51.78;102764.69;2103255;28;19950;-70
2022/12/17 18:20:38;;;;;;;;;;;;;;;14.19;51.74;102770.91;2103116;28;19981;-68
2022/12/17 18:21:42;;;;;;;;;;;;;;;14.18;51.75;102754.91;2104819;28;19935;-65
2022/12/17 18:23:10;;;;;;;;;;;;;;;14.18;52.13;102763.06;2101430;28;19967;-73
2022/12/17 18:24:20;;;;;;;;;;;;;;;14.18;51.98;102757.63;2096047;28;19925;-67
2022/12/17 18:25:22;;;;;;;;;;;;;;;14.18;51.79;102760.34;2083454;28;20446;-67
2022/12/17 18:26:25;;;;;;;;;;;;;;;14.18;51.76;102763.06;2086346;28;19940;-66
2022/12/17 18:27:31;;;;;;;;;;;;;;;14.18;51.70;102763.06;2084633;28;19948;-68
2022/12/17 18:29:16;;;;;;;;;;;;;;;14.17;52.14;102770.44;2095301;28;19933;-70
2022/12/17 18:30:21;;;;;;;;;;;;;;;14.17;51.70;102766.91;2101320;28;19924;-68
2022/12/17 18:31:27;;;;;;;;;;;;;;;14.17;51.45;102769.63;2098888;28;19935;-72
2022/12/17 18:32:29;;;;;;;;;;;;;;;14.16;51.81;102757.94;2100947;28;19932;-67
2022/12/17 18:33:31;;;;;;;;;;;;;;;14.17;51.78;102766.91;2093980;28;19939;-68
2022/12/17 18:34:34;;;;;;;;;;;;;;;14.16;52.26;102760.66;2092787;28;19935;-68
2022/12/17 18:35:37;;;;;;;;;;;;;;;14.15;52.19;102766.41;2104718;28;19928;-67
2022/12/17 18:36:41;;;;;;;;;;;;;;;14.15;52.14;102759.06;2101246;28;19929;-67
2022/12/17 18:37:47;;;;;;;;;;;;;;;14.15;52.04;102761.78;2098995;28;20585;-69
2022/12/17 18:39:08;;;;;;;;;;;;;;;14.15;51.97;102763.69;2091669;28;20411;-67
2022/12/17 18:40:10;;;;;;;;;;;;;;;14.15;52.00;102774.56;2093087;28;20275;-67
2022/12/17 18:43:56;;;;;;;;;;;;;;;14.15;51.82;102766.41;2092706;28;19933;-67
2022/12/17 18:44:58;;;;;;;;;;;;;;;14.14;52.26;102773.78;2101784;28;19928;-67
2022/12/17 18:46:03;;;;;;;;;;;;;;;14.14;52.02;102771.06;2091427;28;19935;-67
2022/12/17 18:47:06;;;;;;;;;;;;;;;14.14;51.70;102772.97;2082768;28;19933;-67
2022/12/17 18:48:07;;;;;;;;;;;;;;;14.13;51.98;102779.53;2089884;28;19996;-67
2022/12/17 18:49:13;;;;;;;;;;;;;;;14.12;51.58;102775.22;2095629;28;20621;-64
2022/12/17 18:50:14;;;;;;;;;;;;;;;14.13;51.64;102779.53;2094311;28;19991;-67
2022/12/17 18:51:17;;;;;;;;;;;;;;;14.13;51.99;102779.53;2100058;28;19935;-68
2022/12/17 18:52:21;;;;;;;;;;;;;;;14.12;51.28;102786.06;2103757;28;20011;-73
2022/12/17 18:53:23;;;;;;;;;;;;;;;14.12;51.36;102783.34;2098980;28;20378;-68
2022/12/17 18:54:27;;;;;;;;;;;;;;;14.12;51.40;102788.78;2097792;28;19977;-67